Naylor, MO (63953)

4:26 AM CDT on April 25, 2015 (GMT -0500)
Corning | | Change Station
CLOSE
Current Station
Airport
Location: Corning,
Elevation: 292 ft
Nearby Weather Stations

Elev 292 ft 36.40 °N, 90.65 °W | Updated 11 minutes ago

Overcast
Overcast
57 °F
Feels Like 57 °F
N
8
Wind Variable Wind from SE

Today
High -- | Low -- °F
--% Chance of Precip.
Yesterday
High -- | Low -- °F
Precip. -- in
6:16 AM 7:45 PM
Waxing Crescent, 44% visible
Pressure 29.63 in
Visibility 5.0 miles
Clouds
Dew Point 57 °F
Humidity 100%
Rainfall 0.00 in
Snow Depth Not available.
UV Not available.
Pollen 9.60 out of 12
Air Quality Not available.
Flu Activity Local Activity
METAR K4M9 250915Z AUTO 14007KT 5SM BR 14/14 A2963 RMK AO2 LTG DSNT NW

More Conditions Fewer Conditions

Pressure 29.63 in
Visibility 5.0 miles
Clouds
Dew Point 57 °F
Humidity 100%
Rainfall 0.00 in
Snow Depth Not available.
UV Not available.
Pollen 9.60 out of 12
Air Quality Not available.
Flu Activity Local Activity
METAR K4M9 250915Z AUTO 14007KT 5SM BR 14/14 A2963 RMK AO2 LTG DSNT NW

More Conditions Fewer Conditions

10-Day Weather Forecast

Almanac

Astronomy

Apr. 25, 2015 Rise Set
Actual Time
Civil Twilight
Nautical Twilight
Astronomical Twilight
Moon
Length of Visible Light
Length of Day
Tomorrow will be .
, % of the Moon is Illuminated

Today's Extremes

State Highs State Lows

Community

WunderPhotos

Upload Photos

1,816,630 photos uploaded!

WunderBlogs® & News

Nearby

Air Quality

  Air Quality AQ Index Pollutant
Not available.

Snow Depth

Station Depth Elevation

Earthquake Activity

City Distance Mag. Time & Date
Minimum magnitude displayed is 2.5.

Coastal Water Temperatures

Place Temperature

Stations

Nearby Weather Stations

Station Location Temp. Windchill Dew Point Humidity Wind Precip. Elev Updated Type